Time;durP1;ratioP1;P1;durP2;ratioP2;P2;SDS_P1;SDS_P2;PMS_P1;PMS_P2;Temp;Humidity;BMP_temperature;BMP_pressure;BME280_temperature;BME280_humidity;BME280_pressure;Samples;Min_cycle;Max_cycle;Signal;HPM_P1;HPM_P2
2023/06/27 00:03:08;;;;;;;13.30;6.05;;;;;;;-145.68;100.00;73267.94;10576770;28;20194;-75
2023/06/27 00:08:09;;;;;;;10.00;6.38;;;;;;;-145.68;100.00;73281.94;10577445;28;20201;-75
2023/06/27 00:13:15;;;;;;;15.02;6.68;;;;;;;-145.68;100.00;73293.94;10576728;28;20573;-75
2023/06/27 00:18:17;;;;;;;14.40;6.65;;;;;;;-145.68;100.00;73297.91;10576968;28;20222;-75
2023/06/27 00:23:23;;;;;;;12.13;6.60;;;;;;;-145.68;100.00;73295.94;10576214;28;20278;-75
2023/06/27 00:28:23;;;;;;;12.23;5.93;;;;;;;-145.68;100.00;73303.91;10576497;28;20220;-75
2023/06/27 00:33:23;;;;;;;8.35;5.22;;;;;;;-145.68;100.00;73321.91;10575883;28;20566;-75
2023/06/27 00:38:24;;;;;;;8.52;5.22;;;;;;;-145.68;100.00;73351.88;10558145;28;20213;-75
2023/06/27 00:43:27;;;;;;;14.15;5.05;;;;;;;-145.68;100.00;73349.88;10574571;28;20289;-75
2023/06/27 00:48:30;;;;;;;7.78;4.50;;;;;;;-145.68;100.00;73337.91;10557490;28;20186;-75
2023/06/27 00:53:31;;;;;;;7.70;4.60;;;;;;;-145.68;100.00;73349.88;10575366;28;20186;-75
2023/06/27 00:58:32;;;;;;;9.38;4.65;;;;;;;-145.68;100.00;73359.88;10574882;28;20206;-75
2023/06/27 01:03:33;;;;;;;8.68;3.45;;;;;;;-145.68;100.00;73357.88;10555976;28;20199;-75
2023/06/27 01:08:46;;;;;;;6.38;3.42;;;;;;;-145.68;100.00;73357.88;10575167;28;20595;-75
2023/06/27 01:13:49;;;;;;;7.28;3.70;;;;;;;-145.68;100.00;73365.88;10556927;28;20196;-74
2023/06/27 01:18:50;;;;;;;9.90;3.60;;;;;;;-145.68;100.00;73403.84;10574140;28;20749;-74
2023/06/27 01:23:58;;;;;;;5.43;2.92;;;;;;;-145.68;100.00;73395.84;10557352;28;20186;-73
2023/06/27 01:28:58;;;;;;;5.82;3.25;;;;;;;-145.68;100.00;73375.88;10538967;28;20185;-72
2023/06/27 01:34:03;;;;;;;6.97;3.38;;;;;;;-145.68;100.00;73397.84;10574995;28;20232;-72
2023/06/27 01:39:19;;;;;;;5.25;3.20;;;;;;;-145.68;100.00;73401.84;10556295;28;20689;-73
2023/06/27 01:44:20;;;;;;;9.00;3.45;;;;;;;-145.68;100.00;73399.84;10539106;28;20235;-73
2023/06/27 01:49:20;;;;;;;8.13;3.45;;;;;;;-145.68;100.00;73427.84;10555723;28;20235;-72
2023/06/27 01:54:20;;;;;;;6.03;4.07;;;;;;;-145.68;100.00;73439.84;10555965;28;20201;-72
2023/06/27 01:59:21;;;;;;;7.55;3.50;;;;;;;-145.68;100.00;73447.81;10581585;28;20251;-72
2023/06/27 02:04:21;;;;;;;6.30;3.72;;;;;;;-145.68;100.00;73463.81;10564061;28;20184;-72
2023/06/27 02:09:22;;;;;;;5.10;3.78;;;;;;;-145.68;100.00;73451.81;10582128;28;20186;-72
2023/06/27 02:14:22;;;;;;;8.13;3.70;;;;;;;-145.68;100.00;73441.81;10563653;28;20202;-73
2023/06/27 02:19:23;;;;;;;7.10;3.50;;;;;;;-145.68;100.00;73439.84;10563752;28;20228;-73
2023/06/27 02:24:23;;;;;;;6.65;4.22;;;;;;;-145.68;100.00;73421.84;10581514;28;20243;-73
2023/06/27 02:29:23;;;;;;;12.13;4.45;;;;;;;-145.68;100.00;73397.84;10581202;28;20233;-73
2023/06/27 02:34:24;;;;;;;4.90;3.80;;;;;;;-145.68;100.00;73403.84;10562925;28;20685;-74
2023/06/27 02:39:25;;;;;;;9.10;3.95;;;;;;;-145.68;100.00;73435.84;10537530;28;20576;-73
2023/06/27 02:44:25;;;;;;;8.38;3.20;;;;;;;-145.68;100.00;73433.84;10519536;28;20191;-73
2023/06/27 02:49:26;;;;;;;10.60;3.80;;;;;;;-145.68;100.00;73443.84;10536465;28;20337;-73
2023/06/27 02:54:29;;;;;;;6.13;3.10;;;;;;;-145.68;100.00;73457.81;10536515;28;20211;-74
2023/06/27 02:59:31;;;;;;;8.88;3.40;;;;;;;-145.68;100.00;73461.81;10519060;28;20190;-73
2023/06/27 03:04:31;;;;;;;9.30;3.33;;;;;;;-145.68;100.00;73465.81;10534471;28;20198;-73
2023/06/27 03:09:32;;;;;;;7.28;3.92;;;;;;;-145.68;100.00;73481.81;10528789;28;20316;-74
2023/06/27 03:14:33;;;;;;;4.55;2.95;;;;;;;-145.68;100.00;73485.81;10511920;28;20351;-74
2023/06/27 03:19:33;;;;;;;18.88;4.32;;;;;;;-145.68;100.00;73501.78;10511430;28;20191;-73
2023/06/27 03:24:34;;;;;;;4.95;3.20;;;;;;;-145.68;100.00;73485.81;10511643;28;20189;-74
2023/06/27 03:29:35;;;;;;;11.25;3.60;;;;;;;-145.68;100.00;73501.78;10529023;28;20270;-73
2023/06/27 03:34:36;;;;;;;7.00;3.28;;;;;;;-145.68;100.00;73511.78;10510933;28;20699;-73
2023/06/27 03:39:38;;;;;;;6.65;3.50;;;;;;;-145.68;100.00;73507.78;10528604;28;20230;-73
2023/06/27 03:44:39;;;;;;;12.63;3.33;;;;;;;-145.68;100.00;73511.78;10527420;28;20534;-73
2023/06/27 03:49:39;;;;;;;7.55;3.05;;;;;;;-145.68;100.00;73505.78;10510668;28;20661;-73
2023/06/27 03:54:40;;;;;;;5.20;3.10;;;;;;;-145.68;100.00;73511.78;10528373;28;20226;-73
2023/06/27 03:59:40;;;;;;;6.68;2.80;;;;;;;-145.68;100.00;73497.78;10510017;28;20248;-73
2023/06/27 04:04:40;;;;;;;8.70;2.92;;;;;;;-145.68;100.00;73515.78;10516348;28;20257;-74
2023/06/27 04:09:41;;;;;;;11.02;3.55;;;;;;;-145.68;100.00;73513.78;10516183;28;20186;-73
2023/06/27 04:14:42;;;;;;;11.52;3.08;;;;;;;-145.68;100.00;73525.78;10517308;28;20562;-74
2023/06/27 04:19:42;;;;;;;11.85;3.50;;;;;;;-145.68;100.00;73537.78;10515421;28;20190;-73
2023/06/27 04:24:43;;;;;;;7.88;3.00;;;;;;;-145.68;100.00;73505.78;10516673;28;20685;-73
2023/06/27 04:29:43;;;;;;;10.88;3.72;;;;;;;-145.68;100.00;73499.78;10515980;28;20194;-73
2023/06/27 04:34:44;;;;;;;6.85;2.90;;;;;;;-145.68;100.00;73515.78;10533633;28;20233;-73
2023/06/27 04:39:44;;;;;;;8.45;3.60;;;;;;;-145.68;100.00;73517.78;10533959;28;20210;-73
2023/06/27 04:44:45;;;;;;;8.82;3.50;;;;;;;-145.68;100.00;73545.78;10549044;28;20966;-73
2023/06/27 04:49:46;;;;;;;10.38;3.67;;;;;;;-145.68;100.00;73553.75;10574692;28;20189;-73
2023/06/27 04:54:49;;;;;;;10.35;3.58;;;;;;;-145.68;100.00;73555.75;10575434;28;20642;-73
2023/06/27 04:59:49;;;;;;;7.88;3.30;;;;;;;-145.68;100.00;73557.75;10575101;28;20395;-73
2023/06/27 05:04:49;;;;;;;12.57;3.83;;;;;;;-145.68;100.00;73561.75;10575209;28;20283;-73
2023/06/27 05:09:50;;;;;;;12.40;4.10;;;;;;;-145.68;100.00;73545.78;10574620;28;20196;-73
2023/06/27 05:14:50;;;;;;;8.40;3.38;;;;;;;-145.68;100.00;73543.78;10575211;28;20217;-73
2023/06/27 05:19:50;;;;;;;9.50;3.28;;;;;;;-145.68;99.78;73551.75;10574085;28;20665;-73
2023/06/27 05:24:51;;;;;;;8.32;2.25;;;;;;;-145.68;91.03;73515.78;10574892;28;20649;-73
2023/06/27 05:29:51;;;;;;;8.95;2.30;;;;;;;-145.68;78.99;73453.81;10554864;28;20198;-73
2023/06/27 05:34:53;;;;;;;8.10;2.20;;;;;;;-145.68;72.47;73465.81;10573910;28;20241;-73
2023/06/27 05:39:53;;;;;;;8.98;2.00;;;;;;;-145.68;70.15;73459.81;10574032;28;20697;-72
2023/06/27 05:44:54;;;;;;;5.53;1.88;;;;;;;-145.68;70.14;73405.84;10574201;28;20186;-73
2023/06/27 05:49:54;;;;;;;5.40;1.52;;;;;;;-145.68;64.88;73337.91;10573179;28;20186;-72
2023/06/27 05:54:54;;;;;;;14.93;2.15;;;;;;;-145.68;65.39;73391.84;10574270;28;20214;-73
2023/06/27 05:59:55;;;;;;;6.70;1.90;;;;;;;-145.68;64.65;73355.88;10573686;28;20200;-73
2023/06/27 06:04:55;;;;;;;6.68;1.67;;;;;;;-145.68;62.75;73299.91;10555756;28;20186;-72
2023/06/27 06:09:55;;;;;;;8.93;1.70;;;;;;;-145.68;62.32;73399.84;10573564;28;20194;-72
2023/06/27 06:14:56;;;;;;;4.63;1.70;;;;;;;-145.68;62.19;73391.84;10573657;28;20221;-72
2023/06/27 06:19:56;;;;;;;5.65;1.70;;;;;;;-145.68;64.70;73401.84;10573518;28;20182;-73
2023/06/27 06:24:56;;;;;;;7.55;1.83;;;;;;;-145.68;62.54;73415.84;10573430;28;20182;-73
2023/06/27 06:29:57;;;;;;;5.28;1.60;;;;;;;-145.68;63.40;73395.84;10573240;28;20185;-73
2023/06/27 06:34:57;;;;;;;11.52;2.17;;;;;;;-145.68;58.43;73363.88;10573239;28;20217;-72
2023/06/27 06:39:58;;;;;;;6.95;1.65;;;;;;;-145.68;58.05;73269.94;10572546;28;20206;-73
2023/06/27 06:44:58;;;;;;;2.60;1.60;;;;;;;-145.68;57.05;73170.00;10578883;28;20197;-73
2023/06/27 06:49:59;;;;;;;8.52;1.88;;;;;;;-145.68;52.94;73088.06;10576762;28;20661;-72
2023/06/27 06:54:59;;;;;;;6.68;1.70;;;;;;;-145.68;54.96;73136.03;10579610;28;20210;-73
2023/06/27 06:59:59;;;;;;;6.00;1.73;;;;;;;-145.68;53.09;73118.03;10579075;28;20218;-73
2023/06/27 07:05:00;;;;;;;3.45;1.40;;;;;;;-145.68;56.63;73215.97;10579651;28;20182;-73
2023/06/27 07:10:00;;;;;;;7.82;1.60;;;;;;;-145.68;54.24;73122.03;10580234;28;20202;-73
2023/06/27 07:15:00;;;;;;;4.47;1.63;;;;;;;-145.68;55.61;73104.06;10578591;28;20218;-72
2023/06/27 07:20:01;;;;;;;8.57;1.73;;;;;;;-145.68;52.97;73014.13;10579336;28;20193;-71
2023/06/27 07:25:01;;;;;;;11.80;1.90;;;;;;;-145.68;51.85;73012.13;10578842;28;20258;-72
2023/06/27 07:30:02;;;;;;;5.15;1.40;;;;;;;-145.68;47.50;72832.25;10578402;28;20200;-72
2023/06/27 07:35:04;;;;;;;5.78;1.15;;;;;;;-145.68;46.44;72738.31;10578083;28;20275;-72
2023/06/27 07:40:07;;;;;;;4.38;1.48;;;;;;;-145.68;45.10;72670.38;10577632;28;20226;-71
2023/06/27 07:45:09;;;;;;;6.43;2.22;;;;;;;-145.68;46.38;72716.34;10578726;28;20187;-71
2023/06/27 07:50:10;;;;;;;5.30;1.70;;;;;;;-145.68;44.22;72660.38;10558891;28;20284;-73
2023/06/27 07:55:10;;;;;;;3.63;1.40;;;;;;;-145.68;43.66;72576.47;10558836;28;20567;-72
2023/06/27 08:00:12;;;;;;;9.45;1.52;;;;;;;-145.68;44.23;72570.47;10558032;28;20193;-72
2023/06/27 08:05:12;;;;;;;4.63;1.35;;;;;;;-145.68;45.17;72696.34;10576635;28;20193;-72
2023/06/27 08:10:13;;;;;;;6.18;1.67;;;;;;;-145.68;47.60;72772.31;10576514;28;20194;-71
2023/06/27 08:15:13;;;;;;;4.70;1.58;;;;;;;-145.68;44.25;72670.38;10576746;28;20267;-72
2023/06/27 08:20:14;;;;;;;3.95;1.30;;;;;;;-145.68;43.06;72554.47;10576151;28;20705;-73
2023/06/27 08:25:14;;;;;;;3.83;1.27;;;;;;;-145.68;43.79;72594.44;10576235;28;20189;-72
2023/06/27 08:30:14;;;;;;;4.68;1.23;;;;;;;-145.68;44.49;72686.38;10575519;28;20201;-72
2023/06/27 08:35:15;;;;;;;3.78;1.20;;;;;;;-145.68;41.94;72538.50;10575865;28;20736;-72
2023/06/27 08:40:23;;;;;;;5.53;1.23;;;;;;;-145.68;42.92;72610.44;10573736;28;20260;-72
2023/06/27 08:45:23;;;;;;;3.33;1.30;;;;;;;-145.68;43.55;72632.41;10575013;28;20181;-71
2023/06/27 08:50:25;;;;;;;5.65;1.50;;;;;;;-145.68;42.68;72512.50;10572853;28;20189;-72
2023/06/27 08:55:49;;;;;;;8.32;1.50;;;;;;;-145.68;40.90;72434.59;10572067;28;20213;-71
2023/06/27 09:00:50;;;;;;;5.13;1.52;;;;;;;-145.68;41.55;72518.50;10573154;28;20190;-72
2023/06/27 09:05:50;;;;;;;5.35;1.85;;;;;;;-145.68;42.29;72598.44;10573905;28;20704;-72
2023/06/27 09:10:51;;;;;;;4.93;1.55;;;;;;;-145.68;43.13;72734.31;10573776;28;20209;-72
2023/06/27 09:22:19;;;;;;;3.67;1.33;;;;;;;-145.68;45.85;72788.28;10560207;28;20193;-72
2023/06/27 09:27:29;;;;;;;4.38;1.20;;;;;;;-145.68;41.88;72610.44;10572346;28;20582;-72
2023/06/27 09:32:30;;;;;;;4.00;1.35;;;;;;;-145.68;40.53;72438.56;10571768;28;20230;-72
2023/06/27 09:37:31;;;;;;;4.50;1.55;;;;;;;-145.68;38.89;72314.69;10574013;28;20217;-71
2023/06/27 09:42:31;;;;;;;9.07;1.42;;;;;;;-145.68;41.50;72516.50;10550717;28;20190;-72
2023/06/27 09:47:35;;;;;;;4.72;1.38;;;;;;;-145.68;43.19;72674.38;10531653;28;20198;-72
2023/06/27 09:52:36;;;;;;;3.97;1.67;;;;;;;-145.68;43.31;72692.38;10532090;28;20198;-71
2023/06/27 09:57:37;;;;;;;5.47;1.60;;;;;;;-145.68;45.81;72802.28;10531251;28;20228;-72
2023/06/27 10:02:37;;;;;;;4.50;1.30;;;;;;;-145.68;44.05;72728.34;10531170;28;20194;-72
2023/06/27 10:13:57;;;;;;;3.90;1.45;;;;;;;-145.68;42.70;72552.47;10569955;28;20630;-72
2023/06/27 10:18:58;;;;;;;5.78;1.58;;;;;;;-145.68;42.30;72584.44;10578311;28;20218;-71
2023/06/27 10:24:00;;;;;;;4.57;1.55;;;;;;;-145.68;41.67;72524.50;10562781;28;20232;-72
2023/06/27 10:29:13;;;;;;;4.20;1.10;;;;;;;-145.68;42.63;72654.41;10581390;28;20197;-72
2023/06/27 10:34:18;;;;;;;5.38;1.20;;;;;;;-145.68;41.30;72496.53;10581033;28;20254;-71
2023/06/27 10:39:24;;;;;;;6.65;1.50;;;;;;;-145.68;40.28;72420.59;10579648;28;20222;-72
2023/06/27 10:44:25;;;;;;;3.15;1.00;;;;;;;-145.68;36.74;72110.88;10581104;28;20190;-72
2023/06/27 10:49:34;;;;;;;4.22;1.20;;;;;;;-145.68;38.58;72326.69;10579979;28;20213;-72
2023/06/27 10:54:34;;;;;;;5.18;1.35;;;;;;;-145.68;39.60;72368.63;10580041;28;20189;-71
2023/06/27 10:59:35;;;;;;;3.03;1.27;;;;;;;-145.68;44.04;72614.44;10561880;28;20194;-72
2023/06/27 11:04:41;;;;;;;3.92;1.42;;;;;;;-145.68;41.77;72428.59;10578685;28;20657;-72
2023/06/27 11:09:54;;;;;;;3.08;1.10;;;;;;;-145.68;43.33;72766.31;10576299;28;20190;-72
2023/06/27 11:14:55;;;;;;;6.40;1.33;;;;;;;-145.68;42.30;72754.31;10577518;28;20221;-72
2023/06/27 11:19:56;;;;;;;7.40;1.17;;;;;;;-145.68;42.94;72718.34;10578491;28;20182;-72
2023/06/27 11:24:58;;;;;;;4.50;1.17;;;;;;;-145.68;43.18;72756.31;10578950;28;20297;-72
2023/06/27 11:29:58;;;;;;;6.95;1.40;;;;;;;-145.68;48.05;72936.19;10577089;28;20194;-73
2023/06/27 11:34:59;;;;;;;2.75;1.17;;;;;;;-145.68;47.14;72832.25;10579073;28;20237;-72
2023/06/27 11:40:07;;;;;;;2.60;1.15;;;;;;;-145.68;44.47;72622.41;10558637;28;20213;-72
2023/06/27 11:45:11;;;;;;;5.07;1.45;;;;;;;-145.68;40.70;72350.66;10575273;28;20251;-72
2023/06/27 11:50:12;;;;;;;6.97;1.20;;;;;;;-145.68;40.56;72550.47;10575050;28;20331;-72
2023/06/27 11:55:12;;;;;;;7.32;1.20;;;;;;;-145.68;40.40;72458.56;10575783;28;20685;-72
2023/06/27 12:00:14;;;;;;;3.15;1.20;;;;;;;-145.68;38.60;72294.72;10573963;28;20673;-72
2023/06/27 12:05:15;;;;;;;3.67;1.08;;;;;;;-145.68;39.56;72316.69;10575697;28;20269;-72
2023/06/27 12:10:16;;;;;;;1.85;0.90;;;;;;;-145.68;39.33;72426.59;10575538;28;20194;-71
2023/06/27 12:15:16;;;;;;;9.80;1.55;;;;;;;-145.68;41.29;72496.53;10576106;28;20226;-72
2023/06/27 12:20:17;;;;;;;4.18;1.00;;;;;;;-145.68;40.60;72528.50;10576875;28;20193;-72
2023/06/27 12:25:17;;;;;;;4.32;1.13;;;;;;;-145.68;40.27;72512.50;10576205;28;20178;-72
2023/06/27 12:30:17;;;;;;;3.42;1.20;;;;;;;-145.68;41.31;72524.50;10574865;28;20259;-72
2023/06/27 12:35:18;;;;;;;3.03;1.08;;;;;;;-145.68;39.69;72404.59;10576087;28;20274;-71
2023/06/27 12:40:22;;;;;;;3.15;1.23;;;;;;;-145.68;40.53;72542.50;10575087;28;20210;-72
2023/06/27 12:45:22;;;;;;;4.45;1.17;;;;;;;-145.68;40.25;72392.63;10575005;28;20186;-71
2023/06/27 12:50:23;;;;;;;1.70;0.90;;;;;;;-145.68;36.08;72104.88;10572596;28;20194;-71
2023/06/27 12:55:23;;;;;;;1.27;0.90;;;;;;;-145.68;37.59;72270.72;10573316;28;20726;-72
2023/06/27 13:00:24;;;;;;;3.85;1.10;;;;;;;-145.68;39.51;72342.66;10572737;28;20319;-72
2023/06/27 13:05:24;;;;;;;2.40;1.10;;;;;;;-145.68;38.90;72280.72;10573558;28;20186;-72
2023/06/27 13:10:27;;;;;;;3.10;0.82;;;;;;;-145.68;35.80;72104.88;10572684;28;20558;-72
2023/06/27 13:15:28;;;;;;;2.50;1.10;;;;;;;-145.68;37.54;72174.81;10573322;28;20206;-71
2023/06/27 13:20:28;;;;;;;3.85;0.93;;;;;;;-145.68;35.46;72056.94;10570869;28;20209;-72
2023/06/27 13:25:29;;;;;;;4.70;1.27;;;;;;;-145.68;36.39;72120.88;10574956;28;20756;-72
2023/06/27 13:30:29;;;;;;;5.47;1.10;;;;;;;-145.68;34.91;72030.94;10574047;28;20650;-72
2023/06/27 13:35:30;;;;;;;3.28;1.08;;;;;;;-145.68;34.06;71817.16;10573584;28;20741;-71
2023/06/27 13:40:30;;;;;;;3.85;1.30;;;;;;;-145.68;33.30;71805.19;10574144;28;20697;-71
2023/06/27 13:45:30;;;;;;;5.05;1.38;;;;;;;-145.68;37.03;72188.81;10572116;28;20213;-71
2023/06/27 13:50:31;;;;;;;3.75;0.90;;;;;;;-145.68;44.74;72852.25;10573620;28;20238;-71
2023/06/27 13:55:31;;;;;;;2.90;1.15;;;;;;;-145.68;43.25;72718.34;10582091;28;20240;-72
2023/06/27 14:00:31;;;;;;;3.17;1.10;;;;;;;-145.68;41.45;72584.44;10581598;28;20190;-72
2023/06/27 14:05:35;;;;;;;8.48;1.00;;;;;;;-145.68;40.31;72538.50;10581958;28;20186;-72
2023/06/27 14:10:36;;;;;;;3.10;0.90;;;;;;;-145.68;37.82;72230.75;10581660;28;20194;-71
2023/06/27 14:15:37;;;;;;;2.10;1.75;;;;;;;-145.68;37.21;72138.84;10581556;28;20221;-72
2023/06/27 14:20:38;;;;;;;5.70;0.95;;;;;;;-145.68;35.09;71915.06;10580794;28;20197;-72
2023/06/27 14:25:38;;;;;;;6.68;1.40;;;;;;;-145.68;34.76;71877.09;10581634;28;20662;-72
2023/06/27 14:30:39;;;;;;;5.63;1.67;;;;;;;-145.68;43.41;72548.47;10580678;28;20194;-72
2023/06/27 14:35:40;;;;;;;7.25;1.35;;;;;;;-145.68;55.04;72998.13;10580598;28;20256;-72
2023/06/27 14:40:40;;;;;;;1.90;1.40;;;;;;;-145.68;59.67;73092.06;10581111;28;20988;-72
2023/06/27 14:45:41;;;;;;;2.85;1.38;;;;;;;-145.68;60.71;73012.13;10578940;28;20565;-72
2023/06/27 14:50:42;;;;;;;2.92;1.33;;;;;;;-145.68;58.51;72962.16;10580005;28;20186;-72
2023/06/27 14:55:42;;;;;;;4.25;1.70;;;;;;;-145.68;58.41;73166.00;10579516;28;20225;-72
2023/06/27 15:00:43;;;;;;;3.25;1.30;;;;;;;-145.68;52.53;72788.28;10577557;28;20660;-72
2023/06/27 15:05:43;;;;;;;2.08;1.10;;;;;;;-145.68;48.70;72558.47;10578148;28;20185;-72
2023/06/27 15:10:45;;;;;;;3.60;1.30;;;;;;;-145.68;45.39;72288.72;10579048;28;20197;-71
2023/06/27 15:15:45;;;;;;;3.38;0.90;;;;;;;-145.68;42.95;72198.78;10579223;28;20677;-72
2023/06/27 15:20:45;;;;;;;3.15;1.05;;;;;;;-145.68;38.80;71905.06;10578672;28;20217;-72
2023/06/27 15:25:46;;;;;;;2.85;1.17;;;;;;;-145.68;35.40;71671.31;10579042;28;20253;-72
2023/06/27 15:30:46;;;;;;;3.45;1.40;;;;;;;-145.68;36.40;71813.16;10577273;28;20190;-71
2023/06/27 15:35:47;;;;;;;2.90;1.23;;;;;;;-145.68;39.59;72148.84;10560390;28;20554;-71
2023/06/27 15:40:47;;;;;;;10.40;1.65;;;;;;;-145.68;42.32;72368.63;10574140;28;20215;-72
2023/06/27 15:45:47;;;;;;;4.95;1.40;;;;;;;-145.68;44.83;72456.56;10535996;28;20604;-72
2023/06/27 15:50:48;;;;;;;5.50;1.60;;;;;;;-145.68;44.87;72498.53;10535354;28;20248;-71
2023/06/27 15:55:48;;;;;;;2.55;1.95;;;;;;;-145.68;50.10;72800.28;10535222;28;20333;-72
2023/06/27 16:00:49;;;;;;;7.57;2.45;;;;;;;-145.68;61.80;73140.03;10534133;28;20186;-71
2023/06/27 16:05:49;;;;;;;6.97;1.70;;;;;;;-145.68;73.31;73243.97;10537056;28;20565;-72
2023/06/27 16:10:49;;;;;;;4.88;1.60;;;;;;;-145.68;90.59;73267.94;10536505;28;20281;-72
2023/06/27 16:15:50;;;;;;;5.80;2.17;;;;;;;-145.68;90.52;73315.91;10536644;28;20282;-73
2023/06/27 16:20:50;;;;;;;4.53;1.90;;;;;;;-145.68;84.80;73363.88;10559789;28;20185;-72
2023/06/27 16:25:54;;;;;;;4.97;1.80;;;;;;;-145.68;85.25;73411.84;10578108;28;20255;-72
2023/06/27 16:30:54;;;;;;;4.68;1.38;;;;;;;-145.68;76.53;73453.81;10577699;28;20186;-72
2023/06/27 16:35:55;;;;;;;3.72;2.30;;;;;;;-145.68;75.07;73425.84;10578223;28;20214;-72
2023/06/27 16:40:55;;;;;;;2.72;1.70;;;;;;;-145.68;72.83;73375.88;10577340;28;20346;-73
2023/06/27 16:45:55;;;;;;;3.03;2.42;;;;;;;-145.68;74.97;73319.91;10576576;28;20193;-73
2023/06/27 16:50:56;;;;;;;4.28;3.13;;;;;;;-145.68;73.18;73313.91;10576734;28;20193;-73
2023/06/27 16:55:56;;;;;;;7.38;3.22;;;;;;;-145.68;69.67;73329.91;10576178;28;20213;-73
2023/06/27 17:00:56;;;;;;;3.00;2.67;;;;;;;-145.68;80.50;73417.84;10575190;28;20207;-72
2023/06/27 17:05:57;;;;;;;4.63;2.60;;;;;;;-145.68;79.77;73461.81;10575212;28;20191;-73
2023/06/27 17:10:57;;;;;;;7.82;4.15;;;;;;;-145.68;93.26;73603.72;10574966;28;20653;-72
2023/06/27 17:15:59;;;;;;;12.40;7.32;;;;;;;-145.68;100.00;73623.72;10574709;28;20214;-72
2023/06/27 17:20:59;;;;;;;11.38;8.93;;;;;;;-145.68;100.00;73655.69;10575114;28;20202;-72
2023/06/27 17:25:59;;;;;;;14.57;9.50;;;;;;;-145.68;100.00;73659.69;10573282;28;20269;-74
2023/06/27 17:31:00;;;;;;;18.77;10.75;;;;;;;-145.68;100.00;73657.69;10575279;28;20225;-75
2023/06/27 17:36:43;;;;;;;22.35;12.82;;;;;;;-145.68;100.00;73615.72;10555358;28;20321;-75
2023/06/27 17:41:43;;;;;;;16.77;11.27;;;;;;;-145.68;100.00;73601.72;10574664;28;20193;-74
2023/06/27 17:46:44;;;;;;;19.55;11.38;;;;;;;-145.68;100.00;73633.72;10574830;28;20178;-74
2023/06/27 17:51:45;;;;;;;21.05;12.68;;;;;;;-145.68;100.00;73643.72;10575073;28;20196;-75
2023/06/27 17:56:45;;;;;;;17.02;11.90;;;;;;;-145.68;100.00;73659.69;10575089;28;20228;-75
2023/06/27 18:01:47;;;;;;;15.45;11.20;;;;;;;-145.68;100.00;73679.69;10556508;28;20194;-75
2023/06/27 18:06:47;;;;;;;16.17;10.70;;;;;;;-145.68;100.00;73687.69;10574982;28;20256;-75
2023/06/27 18:11:47;;;;;;;17.88;11.50;;;;;;;-145.68;100.00;73697.69;10574612;28;20194;-75
2023/06/27 18:16:48;;;;;;;19.25;10.85;;;;;;;-145.68;100.00;73729.66;10575107;28;20214;-75
2023/06/27 18:21:49;;;;;;;14.18;9.05;;;;;;;-145.68;100.00;73731.66;10574023;28;20200;-75
2023/06/27 18:26:49;;;;;;;11.65;6.80;;;;;;;-145.68;100.00;73731.66;10575013;28;20201;-75
2023/06/27 18:31:51;;;;;;;5.45;4.15;;;;;;;-145.68;100.00;73707.69;10574105;28;20229;-75
2023/06/27 18:36:51;;;;;;;3.35;2.30;;;;;;;-145.68;100.00;73671.69;10574489;28;20217;-75
2023/06/27 18:41:52;;;;;;;7.88;2.28;;;;;;;-145.68;98.85;73657.69;10580664;28;20201;-75
2023/06/27 18:46:52;;;;;;;3.60;2.05;;;;;;;-145.68;94.30;73653.69;10581255;28;20269;-75
2023/06/27 18:51:54;;;;;;;3.92;1.90;;;;;;;-145.68;92.53;73661.69;10580709;28;20190;-75
2023/06/27 18:56:54;;;;;;;2.80;1.63;;;;;;;-145.68;91.42;73687.69;10591975;27;20304;-75
2023/06/27 19:01:54;;;;;;;2.70;1.70;;;;;;;-145.68;95.51;73707.69;10579870;28;20646;-74
2023/06/27 19:06:55;;;;;;;3.60;1.90;;;;;;;-145.68;93.06;73741.66;10580018;28;20557;-75
2023/06/27 19:11:55;;;;;;;4.70;1.60;;;;;;;-145.68;99.94;73813.63;10580443;28;20653;-74
2023/06/27 19:16:56;;;;;;;5.20;2.20;;;;;;;-145.68;100.00;73843.59;10579391;28;20220;-74
2023/06/27 19:22:00;;;;;;;2.10;1.50;;;;;;;-145.68;100.00;73853.59;10579008;28;20739;-74
2023/06/27 19:27:01;;;;;;;2.17;1.40;;;;;;;-145.68;100.00;73873.59;10579967;28;20193;-74
2023/06/27 19:32:01;;;;;;;2.28;1.38;;;;;;;-145.68;100.00;73849.59;10578670;28;20230;-74
2023/06/27 19:37:01;;;;;;;5.93;2.03;;;;;;;-145.68;100.00;73889.56;10578372;28;20614;-75
2023/06/27 19:42:02;;;;;;;2.72;1.77;;;;;;;-145.68;100.00;73899.56;10577951;28;20211;-74
2023/06/27 19:47:03;;;;;;;1.80;1.70;;;;;;;-145.68;100.00;73905.56;10579329;28;20186;-75
2023/06/27 19:52:04;;;;;;;3.90;2.20;;;;;;;-145.68;100.00;73955.53;10577699;28;20185;-75
2023/06/27 19:57:10;;;;;;;4.50;2.20;;;;;;;-145.68;100.00;73981.53;10560313;28;20213;-74
2023/06/27 20:02:10;;;;;;;2.60;2.40;;;;;;;-145.68;100.00;73995.53;10578228;28;20214;-75
2023/06/27 20:07:10;;;;;;;4.00;2.63;;;;;;;-145.68;100.00;73995.53;10578485;28;20178;-75
2023/06/27 20:12:12;;;;;;;2.80;2.50;;;;;;;-145.68;100.00;74023.50;10559549;28;20188;-75
2023/06/27 20:17:12;;;;;;;2.70;2.50;;;;;;;-145.68;100.00;74019.50;10578854;28;20972;-74
2023/06/27 20:22:13;;;;;;;5.23;2.43;;;;;;;-145.68;100.00;74039.50;10578888;28;20272;-75
2023/06/27 20:27:13;;;;;;;4.10;2.30;;;;;;;-145.68;100.00;74049.50;10578215;28;20222;-75
2023/06/27 20:32:13;;;;;;;4.40;3.20;;;;;;;-145.68;100.00;74067.50;10577853;28;20237;-75
2023/06/27 20:37:14;;;;;;;3.60;2.27;;;;;;;-145.68;100.00;74065.50;10559889;28;20202;-75
2023/06/27 20:42:14;;;;;;;2.53;2.20;;;;;;;-145.68;100.00;74069.50;10577804;28;20189;-74
2023/06/27 20:47:16;;;;;;;3.83;2.80;;;;;;;-145.68;100.00;74079.50;10577915;28;20242;-75
2023/06/27 20:52:16;;;;;;;2.92;2.70;;;;;;;-145.68;100.00;74071.50;10577344;28;20269;-75
2023/06/27 20:57:16;;;;;;;2.93;2.63;;;;;;;-145.68;100.00;74063.50;10577595;28;20186;-74
2023/06/27 21:02:17;;;;;;;3.97;2.40;;;;;;;-145.68;100.00;74061.50;10576429;28;20306;-74
2023/06/27 21:07:17;;;;;;;3.60;2.33;;;;;;;-145.68;100.00;74047.50;10576964;28;20275;-74
2023/06/27 21:12:18;;;;;;;3.57;2.50;;;;;;;-145.68;100.00;74037.50;10576934;28;20280;-75
2023/06/27 21:17:24;;;;;;;2.30;2.10;;;;;;;-145.68;100.00;74031.50;10576300;28;20273;-75
2023/06/27 21:22:25;;;;;;;5.77;3.30;;;;;;;-145.68;100.00;74049.50;10559102;28;20254;-75
2023/06/27 21:27:26;;;;;;;8.67;2.87;;;;;;;-145.68;100.00;74049.50;10558610;28;20221;-75
2023/06/27 21:32:27;;;;;;;3.37;2.30;;;;;;;-145.68;100.00;74031.50;10576363;28;20217;-75
2023/06/27 21:37:27;;;;;;;5.97;2.80;;;;;;;-145.68;100.00;74029.50;10576223;28;20682;-75
2023/06/27 21:42:28;;;;;;;2.57;2.37;;;;;;;-145.68;100.00;74023.50;10576132;28;20285;-75
2023/06/27 21:47:28;;;;;;;3.87;2.10;;;;;;;-145.68;100.00;74003.53;10576268;28;20226;-75
2023/06/27 21:52:28;;;;;;;4.97;2.60;;;;;;;-145.68;100.00;74003.53;10576086;28;20182;-75
2023/06/27 21:57:29;;;;;;;4.07;2.27;;;;;;;-145.68;100.00;74003.53;10576879;28;20254;-75
2023/06/27 22:02:29;;;;;;;3.10;2.80;;;;;;;-145.68;100.00;73999.53;10575267;28;20196;-75
2023/06/27 22:07:30;;;;;;;5.07;4.13;;;;;;;-145.68;100.00;73993.53;10575725;28;20712;-75
2023/06/27 22:12:31;;;;;;;6.93;2.77;;;;;;;-145.68;100.00;74009.53;10576022;28;20200;-75
2023/06/27 22:17:32;;;;;;;4.57;2.60;;;;;;;-145.68;100.00;74015.50;10583581;28;20182;-75
2023/06/27 22:22:32;;;;;;;3.30;2.90;;;;;;;-145.68;100.00;74027.50;10583791;28;20293;-75
2023/06/27 22:27:32;;;;;;;8.03;2.60;;;;;;;-145.68;100.00;74043.50;10583301;28;20314;-75
2023/06/27 22:32:33;;;;;;;3.63;2.53;;;;;;;-145.68;100.00;74047.50;10583397;28;20229;-75
2023/06/27 22:37:33;;;;;;;4.33;3.00;;;;;;;-145.68;100.00;74057.50;10582889;28;20280;-75
2023/06/27 22:42:34;;;;;;;3.87;3.07;;;;;;;-145.68;100.00;74043.50;10582802;28;20185;-75
2023/06/27 22:47:35;;;;;;;4.17;2.93;;;;;;;-145.68;100.00;74029.50;10582679;28;20222;-75
2023/06/27 22:52:35;;;;;;;3.73;2.53;;;;;;;-145.68;100.00;73999.53;10582053;28;20562;-74